createdAt,value
2018-11-04T00:01:09.865Z,23.97
2018-11-04T00:04:16.764Z,23.03
2018-11-04T00:07:22.975Z,25.40
2018-11-04T00:10:29.085Z,23.63
2018-11-04T00:13:35.557Z,27.27
2018-11-04T00:16:42.493Z,23.53
2018-11-04T00:19:48.770Z,23.30
2018-11-04T00:22:55.826Z,21.40
2018-11-04T00:26:02.013Z,24.43
2018-11-04T00:29:08.337Z,27.87
2018-11-04T00:32:14.666Z,27.70
2018-11-04T00:35:20.915Z,25.87
2018-11-04T00:38:27.876Z,23.67
2018-11-04T00:41:34.355Z,25.37
2018-11-04T00:44:40.728Z,22.50
2018-11-04T00:47:48.084Z,23.77
2018-11-04T00:50:54.381Z,25.13
2018-11-04T00:54:00.511Z,24.40
2018-11-04T00:57:06.735Z,19.80
2018-11-04T01:00:12.781Z,25.00
2018-11-04T01:03:19.041Z,25.50
2018-11-04T01:06:25.100Z,27.40
2018-11-04T01:09:31.547Z,26.00
2018-11-04T01:12:38.452Z,26.13
2018-11-04T01:15:44.575Z,23.50
2018-11-04T01:18:50.939Z,21.60
2018-11-04T01:21:57.932Z,22.47
2018-11-04T01:25:04.334Z,19.87
2018-11-04T01:28:10.720Z,24.40
2018-11-04T01:31:16.785Z,24.37
2018-11-04T01:34:22.846Z,20.53
2018-11-04T01:37:29.102Z,19.60
2018-11-04T01:40:35.194Z,21.87
2018-11-04T01:43:41.356Z,23.10
2018-11-04T01:46:48.588Z,23.53
2018-11-04T01:49:54.961Z,17.60
2018-11-04T01:53:01.276Z,23.53
2018-11-04T01:56:07.728Z,23.10
2018-11-04T01:59:14.440Z,20.57
2018-11-04T02:02:20.775Z,20.73
2018-11-04T02:05:27.308Z,20.77
2018-11-04T02:08:33.712Z,17.87
2018-11-04T02:11:39.866Z,19.50
2018-11-04T02:14:46.023Z,22.70
2018-11-04T02:17:52.691Z,23.23
2018-11-04T02:20:59.805Z,23.67
2018-11-04T02:24:05.760Z,18.53
2018-11-04T02:27:11.946Z,22.63
2018-11-04T02:30:21.400Z,19.43
2018-11-04T02:33:27.966Z,15.53
2018-11-04T02:36:34.140Z,16.77
2018-11-04T02:39:40.298Z,21.43
2018-11-04T02:42:46.640Z,21.80
2018-11-04T02:45:53.016Z,18.70
2018-11-04T02:48:59.370Z,18.10
2018-11-04T02:52:05.515Z,18.07
2018-11-04T02:55:11.911Z,18.07
2018-11-04T02:58:18.641Z,18.93
2018-11-04T03:01:24.888Z,22.27
2018-11-04T03:04:31.032Z,19.60
2018-11-04T03:07:37.619Z,20.00
2018-11-04T03:10:43.673Z,21.53
2018-11-04T03:13:49.592Z,20.60
2018-11-04T03:16:56.911Z,19.70
2018-11-04T03:20:03.195Z,22.87
2018-11-04T03:23:09.431Z,18.47
2018-11-04T03:26:16.011Z,19.33
2018-11-04T03:29:23.007Z,23.37
2018-11-04T03:32:28.993Z,17.70
2018-11-04T03:35:35.247Z,18.73
2018-11-04T03:38:41.628Z,19.20
2018-11-04T03:41:48.319Z,20.77
2018-11-04T03:44:55.148Z,20.93
2018-11-04T03:48:02.314Z,16.60
2018-11-04T03:51:08.634Z,17.87
2018-11-04T03:54:15.994Z,19.83
2018-11-04T03:57:22.481Z,18.97
2018-11-04T04:00:29.662Z,17.00
2018-11-04T04:03:35.780Z,16.43
2018-11-04T04:06:42.090Z,16.80
2018-11-04T04:09:48.292Z,20.37
2018-11-04T04:12:54.625Z,20.23
2018-11-04T04:16:01.390Z,18.77
2018-11-04T04:19:08.281Z,18.27
2018-11-04T04:22:14.619Z,23.70
2018-11-04T04:25:20.925Z,18.10
2018-11-04T04:28:27.235Z,17.57
2018-11-04T04:31:33.285Z,22.37
2018-11-04T04:34:40.409Z,19.33
2018-11-04T04:37:47.631Z,17.27
2018-11-04T04:40:53.839Z,20.13
2018-11-04T04:44:00.017Z,14.93
2018-11-04T04:47:06.421Z,21.33
2018-11-04T04:50:13.341Z,19.37
2018-11-04T04:53:19.725Z,17.60
2018-11-04T04:56:25.762Z,19.13
2018-11-04T04:59:32.083Z,18.53
2018-11-04T05:02:38.172Z,19.33
2018-11-04T05:05:44.577Z,17.80
2018-11-04T05:08:50.726Z,19.53
2018-11-04T05:11:57.322Z,22.20
2018-11-04T05:15:04.117Z,18.80
2018-11-04T05:18:10.424Z,23.27
2018-11-04T05:21:17.997Z,22.17
2018-11-04T05:24:24.381Z,20.60
2018-11-04T05:27:31.254Z,16.57
2018-11-04T05:30:37.578Z,19.27
2018-11-04T05:33:44.136Z,17.73
2018-11-04T05:36:50.346Z,19.03
2018-11-04T05:39:56.778Z,16.93
2018-11-04T05:43:03.098Z,21.70
2018-11-04T05:46:09.278Z,20.27
2018-11-04T05:49:15.558Z,20.63
2018-11-04T05:52:21.646Z,20.13
2018-11-04T05:55:29.064Z,19.17
2018-11-04T05:58:35.023Z,17.40
2018-11-04T06:01:41.094Z,19.07
2018-11-04T06:04:47.444Z,22.23
2018-11-04T06:07:53.722Z,23.60
2018-11-04T06:10:59.977Z,22.30
2018-11-04T06:14:06.164Z,19.03
2018-11-04T06:17:12.366Z,27.40
2018-11-04T06:20:20.518Z,22.30
2018-11-04T06:23:26.687Z,25.63
2018-11-04T06:26:33.160Z,23.63
2018-11-04T06:29:39.899Z,22.23
2018-11-04T06:32:46.192Z,23.10
2018-11-04T06:35:52.263Z,20.80
2018-11-04T06:38:58.455Z,23.17
2018-11-04T06:42:04.631Z,25.43
2018-11-04T06:45:10.815Z,20.17
2018-11-04T06:48:17.714Z,24.00
2018-11-04T06:51:23.719Z,22.83
2018-11-04T06:54:29.925Z,22.23
2018-11-04T06:57:36.411Z,23.30
2018-11-04T07:00:43.401Z,20.03
2018-11-04T07:03:49.491Z,19.90
2018-11-04T07:06:55.621Z,24.10
2018-11-04T07:10:01.601Z,18.33
2018-11-04T07:13:08.828Z,21.37
2018-11-04T07:16:15.197Z,21.13
2018-11-04T07:19:22.430Z,23.43
2018-11-04T07:22:28.559Z,22.13
2018-11-04T07:25:34.907Z,22.30
2018-11-04T07:28:41.361Z,21.63
2018-11-04T07:31:47.902Z,18.97
2018-11-04T07:34:54.255Z,19.67
2018-11-04T07:38:00.302Z,17.73
2018-11-04T07:41:06.706Z,21.00
2018-11-04T07:44:13.215Z,19.03
2018-11-04T07:47:19.526Z,19.13
2018-11-04T07:50:26.506Z,17.53
2018-11-04T07:53:32.842Z,20.37
2018-11-04T07:56:38.768Z,18.57
2018-11-04T07:59:44.830Z,19.43
2018-11-04T08:02:52.171Z,19.83
2018-11-04T08:05:58.674Z,22.33
2018-11-04T08:09:05.671Z,21.17
2018-11-04T08:12:12.230Z,19.30
2018-11-04T08:15:20.277Z,18.57
2018-11-04T08:18:26.300Z,21.13
2018-11-04T08:21:33.222Z,25.83
2018-11-04T08:24:39.756Z,18.27
2018-11-04T08:27:45.952Z,22.83
2018-11-04T08:30:52.190Z,20.90
2018-11-04T08:33:58.384Z,19.47
2018-11-04T08:37:04.580Z,22.57
2018-11-04T08:40:10.826Z,20.83
2018-11-04T08:43:16.819Z,18.87
2018-11-04T08:46:23.196Z,20.50
2018-11-04T08:49:29.593Z,23.57
2018-11-04T08:52:36.963Z,22.60
2018-11-04T08:55:43.002Z,19.20
2018-11-04T08:58:49.032Z,19.97
2018-11-04T09:01:55.575Z,21.60
2018-11-04T09:05:01.788Z,28.60
2018-11-04T09:08:08.102Z,21.07
2018-11-04T09:11:14.100Z,23.77
2018-11-04T09:14:20.240Z,22.27
2018-11-04T09:17:26.210Z,20.13
2018-11-04T09:20:33.327Z,27.20
2018-11-04T09:23:39.592Z,22.97
2018-11-04T09:26:45.962Z,26.53
2018-11-04T09:29:52.309Z,21.70
2018-11-04T09:32:58.883Z,20.40
2018-11-04T09:36:06.951Z,22.60
2018-11-04T09:39:12.984Z,21.37
2018-11-04T09:42:19.125Z,18.90
2018-11-04T09:45:25.511Z,22.67
2018-11-04T09:48:31.823Z,22.47
2018-11-04T09:51:38.009Z,21.40
2018-11-04T09:54:44.198Z,23.17
2018-11-04T09:57:50.262Z,21.57
2018-11-04T10:00:56.422Z,22.53
2018-11-04T10:04:02.764Z,22.53
2018-11-04T10:07:08.724Z,26.97
2018-11-04T10:10:15.257Z,24.07
2018-11-04T10:13:21.593Z,20.63
2018-11-04T10:16:27.899Z,22.80
2018-11-04T10:19:33.944Z,23.90
2018-11-04T10:22:40.602Z,23.50
2018-11-04T10:25:46.923Z,25.07
2018-11-04T10:28:53.926Z,22.17
2018-11-04T10:32:00.912Z,20.47
2018-11-04T10:35:07.008Z,22.13
2018-11-04T10:38:13.240Z,26.80
2018-11-04T10:41:19.806Z,23.70
2018-11-04T10:44:26.832Z,26.20
2018-11-04T10:47:33.275Z,29.57
2018-11-04T10:50:40.206Z,24.17
2018-11-04T10:53:46.177Z,27.90
2018-11-04T10:56:52.299Z,24.63
2018-11-04T10:59:59.774Z,22.63
2018-11-04T11:03:07.840Z,24.37
2018-11-04T11:06:14.264Z,26.70
2018-11-04T11:09:22.106Z,22.93
2018-11-04T11:12:28.004Z,24.83
2018-11-04T11:15:35.445Z,21.00
2018-11-04T11:18:42.513Z,24.40
2018-11-04T11:21:49.489Z,24.40
2018-11-04T11:24:55.857Z,24.83
2018-11-04T11:28:02.057Z,27.57
2018-11-04T11:31:08.283Z,22.57
2018-11-04T11:34:15.395Z,21.10
2018-11-04T11:37:21.586Z,24.33
2018-11-04T11:40:27.708Z,23.80
2018-11-04T11:43:33.993Z,21.53
2018-11-04T11:46:41.085Z,23.53
2018-11-04T11:49:47.327Z,21.47
2018-11-04T11:52:53.717Z,23.50
2018-11-04T11:56:01.014Z,21.90
2018-11-04T11:59:08.141Z,25.80
2018-11-04T12:02:14.127Z,25.73
2018-11-04T12:05:20.334Z,29.93
2018-11-04T12:08:26.288Z,23.70
2018-11-04T12:11:32.542Z,28.50
2018-11-04T12:14:38.928Z,25.43
2018-11-04T12:17:45.009Z,26.77
2018-11-04T12:20:51.601Z,27.67
2018-11-04T12:23:59.661Z,22.90
2018-11-04T12:27:05.924Z,23.60
2018-11-04T12:30:11.875Z,28.87
2018-11-04T12:33:18.447Z,27.43
2018-11-04T12:36:25.400Z,26.40
2018-11-04T12:39:31.557Z,29.57
2018-11-04T12:42:37.868Z,26.10
2018-11-04T12:45:44.230Z,24.40
2018-11-04T12:48:50.660Z,25.77
2018-11-04T12:51:57.151Z,26.17
2018-11-04T12:55:04.288Z,32.50
2018-11-04T12:58:10.468Z,25.97
2018-11-04T13:01:16.778Z,27.83
2018-11-04T13:04:22.906Z,27.63
2018-11-04T13:07:28.944Z,25.97
2018-11-04T13:10:35.235Z,27.37
2018-11-04T13:13:41.348Z,27.37
2018-11-04T13:16:47.712Z,25.80
2018-11-04T13:19:54.590Z,33.13
2018-11-04T13:23:00.521Z,26.53
2018-11-04T13:26:07.313Z,28.20
2018-11-04T13:29:13.456Z,26.47
2018-11-04T13:32:20.385Z,22.87
2018-11-04T13:35:26.845Z,25.73
2018-11-04T13:38:33.358Z,25.63
2018-11-04T13:41:40.747Z,23.77
2018-11-04T13:44:47.606Z,28.23
2018-11-04T13:47:53.852Z,27.40
2018-11-04T13:50:59.963Z,25.93
2018-11-04T13:54:07.486Z,29.27
2018-11-04T13:57:13.623Z,28.33
2018-11-04T14:00:23.142Z,28.53
2018-11-04T14:03:29.306Z,25.60
2018-11-04T14:06:35.574Z,24.20
2018-11-04T14:09:42.571Z,26.77
2018-11-04T14:12:50.189Z,28.47
2018-11-04T14:15:57.266Z,29.03
2018-11-04T14:19:03.538Z,27.27
2018-11-04T14:22:09.846Z,29.73
2018-11-04T14:25:16.975Z,29.43
2018-11-04T14:28:23.226Z,27.87
2018-11-04T14:31:29.430Z,28.37
2018-11-04T14:34:35.665Z,33.10
2018-11-04T14:37:41.746Z,27.97
2018-11-04T14:40:47.810Z,31.13
2018-11-04T14:43:54.082Z,29.87
2018-11-04T14:47:00.099Z,29.40
2018-11-04T14:50:06.334Z,28.80
2018-11-04T14:53:12.574Z,31.03
2018-11-04T14:56:18.661Z,26.43
2018-11-04T14:59:24.953Z,27.70
2018-11-04T15:02:31.443Z,30.47
2018-11-04T15:05:38.517Z,31.03
2018-11-04T15:08:45.117Z,31.03
2018-11-04T15:11:52.907Z,28.23
2018-11-04T15:14:59.145Z,32.57
2018-11-04T15:18:05.266Z,34.97
2018-11-04T15:21:11.685Z,30.80
2018-11-04T15:24:17.917Z,27.90
2018-11-04T15:27:24.224Z,30.70
2018-11-04T15:30:31.648Z,28.60
2018-11-04T15:33:37.989Z,29.40
2018-11-04T15:36:43.996Z,28.03
2018-11-04T15:39:50.554Z,31.30
2018-11-04T15:42:56.584Z,29.30
2018-11-04T15:46:02.954Z,29.73
2018-11-04T15:49:09.898Z,30.80
2018-11-04T15:52:16.016Z,27.97
2018-11-04T15:55:22.196Z,28.07
2018-11-04T15:58:28.420Z,31.53
2018-11-04T16:01:35.585Z,31.10
2018-11-04T16:04:44.550Z,30.33
2018-11-04T16:07:48.084Z,30.57
2018-11-04T16:10:54.479Z,34.67
2018-11-04T16:14:00.517Z,32.97
2018-11-04T16:17:06.979Z,32.40
2018-11-04T16:20:13.932Z,33.33
2018-11-04T16:23:20.033Z,33.20
2018-11-04T16:26:26.111Z,37.07
2018-11-04T16:29:32.541Z,36.07
2018-11-04T16:32:40.581Z,35.87
2018-11-04T16:35:46.629Z,36.60
2018-11-04T16:38:52.682Z,37.13
2018-11-04T16:41:59.144Z,35.03
2018-11-04T16:45:05.896Z,36.63
2018-11-04T16:48:12.275Z,34.83
2018-11-04T16:51:18.633Z,38.33
2018-11-04T16:54:24.839Z,37.10
2018-11-04T16:57:31.164Z,37.90
2018-11-04T17:00:37.572Z,41.87
2018-11-04T17:03:44.623Z,36.73
2018-11-04T17:06:50.549Z,41.50
2018-11-04T17:09:56.526Z,40.57
2018-11-04T17:13:02.769Z,39.20
2018-11-04T17:16:10.744Z,42.60
2018-11-04T17:19:16.965Z,41.53
2018-11-04T17:22:23.235Z,42.40
2018-11-04T17:25:29.575Z,38.63
2018-11-04T17:28:36.651Z,39.20
2018-11-04T17:31:43.645Z,42.33
2018-11-04T17:34:50.347Z,43.47
2018-11-04T17:37:56.580Z,47.63
2018-11-04T17:41:03.613Z,41.13
2018-11-04T17:44:09.862Z,50.43
2018-11-04T17:47:16.817Z,50.13
2018-11-04T17:50:25.912Z,48.77
2018-11-04T17:53:32.270Z,49.43
2018-11-04T17:56:38.896Z,47.07
2018-11-04T17:59:45.777Z,50.87
2018-11-04T18:02:52.684Z,49.40
2018-11-04T18:05:59.228Z,48.77
2018-11-04T18:09:07.400Z,44.43
2018-11-04T18:12:13.998Z,46.17
2018-11-04T18:15:22.890Z,45.33
2018-11-04T18:18:29.438Z,46.20
2018-11-04T18:21:35.694Z,49.43
2018-11-04T18:24:43.852Z,45.97
2018-11-04T18:27:50.894Z,45.37
2018-11-04T18:30:58.794Z,47.07
2018-11-04T18:34:04.992Z,52.70
2018-11-04T18:37:12.784Z,50.50
2018-11-04T18:40:22.696Z,48.20
2018-11-04T18:43:28.783Z,46.30
2018-11-04T18:46:34.997Z,47.90
2018-11-04T18:49:41.912Z,49.90
2018-11-04T18:52:48.785Z,45.37
2018-11-04T18:55:55.317Z,45.97
2018-11-04T18:59:01.935Z,46.77
2018-11-04T19:02:08.605Z,43.17
2018-11-04T19:05:15.824Z,43.70
2018-11-04T19:08:21.901Z,41.60
2018-11-04T19:11:29.366Z,42.17
2018-11-04T19:14:35.209Z,42.73
2018-11-04T19:17:41.705Z,40.63
2018-11-04T19:20:48.724Z,46.27
2018-11-04T19:23:55.193Z,41.10
2018-11-04T19:27:14.060Z,40.60
2018-11-04T19:30:23.174Z,44.80
2018-11-04T19:33:30.749Z,37.07
2018-11-04T19:36:37.261Z,37.53
2018-11-04T19:39:44.107Z,36.17
2018-11-04T19:42:50.255Z,39.03
2018-11-04T19:45:56.195Z,34.77
2018-11-04T19:49:02.245Z,36.37
2018-11-04T19:52:08.307Z,37.83
2018-11-04T19:55:14.564Z,41.10
2018-11-04T19:58:20.898Z,39.47
2018-11-04T20:01:27.000Z,38.83
2018-11-04T20:04:33.336Z,36.23
2018-11-04T20:07:39.839Z,38.10
2018-11-04T20:10:46.458Z,36.90
2018-11-04T20:13:58.692Z,35.87
2018-11-04T20:17:05.433Z,35.83
2018-11-04T20:20:17.672Z,37.73
2018-11-04T20:23:23.717Z,36.87
2018-11-04T20:26:30.150Z,34.40
2018-11-04T20:29:36.462Z,38.37
2018-11-04T20:32:48.705Z,36.47
2018-11-04T20:35:54.919Z,38.07
2018-11-04T20:39:08.219Z,35.13
2018-11-04T20:42:15.066Z,38.00
2018-11-04T20:45:21.475Z,37.97
2018-11-04T20:48:34.497Z,36.07
2018-11-04T20:51:40.860Z,36.60
2018-11-04T20:54:46.992Z,36.27
2018-11-04T20:57:56.419Z,33.87
2018-11-04T21:01:02.474Z,38.17
2018-11-04T21:04:09.051Z,36.03
2018-11-04T21:07:24.766Z,36.37
2018-11-04T21:10:31.045Z,38.80
2018-11-04T21:13:38.037Z,42.03
2018-11-04T21:16:44.600Z,44.73
2018-11-04T21:19:51.487Z,40.97
2018-11-04T21:22:57.930Z,35.93
2018-11-04T21:26:04.123Z,40.97
2018-11-04T21:29:10.529Z,40.23
2018-11-04T21:32:16.567Z,38.30
2018-11-04T21:35:22.832Z,38.83
2018-11-04T21:38:28.774Z,46.43
2018-11-04T21:41:35.197Z,47.43
2018-11-04T21:44:42.273Z,50.97
2018-11-04T21:47:48.540Z,41.33
2018-11-04T21:50:55.229Z,44.03
2018-11-04T21:54:02.444Z,51.73
2018-11-04T21:57:09.338Z,55.90
2018-11-04T22:00:17.106Z,57.37
2018-11-04T22:03:23.981Z,50.60
2018-11-04T22:06:30.019Z,54.17
2018-11-04T22:09:36.051Z,50.27
2018-11-04T22:12:42.504Z,58.87
2018-11-04T22:15:50.454Z,66.20
2018-11-04T22:18:57.139Z,61.27
2018-11-04T22:22:04.094Z,67.70
2018-11-04T22:25:10.542Z,66.03
2018-11-04T22:28:17.356Z,61.70
2018-11-04T22:31:23.664Z,66.20
2018-11-04T22:34:29.903Z,64.63
2018-11-04T22:37:37.088Z,62.57
2018-11-04T22:40:43.254Z,60.60
2018-11-04T22:43:49.254Z,62.40
2018-11-04T22:46:55.487Z,58.43
2018-11-04T22:50:01.639Z,63.10
2018-11-04T22:53:07.898Z,59.97
2018-11-04T22:56:14.171Z,60.10
2018-11-04T22:59:20.184Z,64.00
2018-11-04T23:02:26.489Z,59.70
2018-11-04T23:05:34.487Z,53.17
2018-11-04T23:08:40.678Z,52.47
2018-11-04T23:11:47.737Z,51.37
2018-11-04T23:14:53.939Z,54.43
2018-11-04T23:18:00.311Z,57.77
2018-11-04T23:21:06.372Z,58.27
2018-11-04T23:24:12.517Z,56.30
2018-11-04T23:27:19.363Z,54.47
2018-11-04T23:30:28.730Z,49.97
2018-11-04T23:33:35.098Z,46.60
2018-11-04T23:36:41.372Z,47.03
2018-11-04T23:39:48.223Z,43.60
2018-11-04T23:42:55.265Z,40.83
2018-11-04T23:46:01.527Z,42.60
2018-11-04T23:49:07.564Z,40.70
2018-11-04T23:52:13.668Z,38.87
2018-11-04T23:55:21.924Z,42.73
2018-11-04T23:58:28.346Z,42.60
